Time;durP1;ratioP1;P1;durP2;ratioP2;P2;SDS_P1;SDS_P2;PMS_P1;PMS_P2;Temp;Humidity;BMP_temperature;BMP_pressure;BME280_temperature;BME280_humidity;BME280_pressure;Samples;Min_cycle;Max_cycle;Signal;HPM_P1;HPM_P2
2022/06/13 00:00:29;;;;;;;;;;;;;;;20.51;60.31;99770.19;4368040;32;20009;-92
2022/06/13 00:02:55;;;;;;;;;;;;;;;20.61;60.32;99777.47;4368086;32;20335;-91
2022/06/13 00:05:20;;;;;;;;;;;;;;;20.49;60.31;99785.31;4380543;32;19975;-90
2022/06/13 00:07:46;;;;;;;;;;;;;;;20.46;60.30;99779.41;4367957;32;19994;-90
2022/06/13 00:10:11;;;;;;;;;;;;;;;20.53;60.31;99775.34;4380529;32;20032;-90
2022/06/13 00:12:37;;;;;;;;;;;;;;;20.48;60.31;99775.69;4380616;32;20236;-90
2022/06/13 00:15:02;;;;;;;;;;;;;;;20.42;60.31;99777.94;4367977;32;20017;-91
2022/06/13 00:17:28;;;;;;;;;;;;;;;20.09;60.29;99778.50;4380717;32;20009;-90
2022/06/13 00:19:53;;;;;;;;;;;;;;;20.05;60.29;99769.09;4367993;32;19995;-89
2022/06/13 00:22:18;;;;;;;;;;;;;;;20.11;60.29;99768.66;4367943;32;20342;-89
2022/06/13 00:24:44;;;;;;;;;;;;;;;20.08;60.29;99768.88;4392919;32;20341;-90
2022/06/13 00:27:10;;;;;;;;;;;;;;;20.05;60.29;99771.75;4392951;32;20014;-90
2022/06/13 00:29:36;;;;;;;;;;;;;;;19.99;60.28;99767.75;4380546;32;20452;-89
2022/06/13 00:32:01;;;;;;;;;;;;;;;20.00;60.28;99764.16;4373727;32;20058;-91
2022/06/13 00:34:26;;;;;;;;;;;;;;;19.96;60.28;99765.31;4394660;32;20235;-90
2022/06/13 00:36:52;;;;;;;;;;;;;;;19.88;60.28;99763.22;4367921;32;20017;-90
2022/06/13 00:39:17;;;;;;;;;;;;;;;19.87;60.28;99761.56;4367661;32;20002;-89
2022/06/13 00:41:42;;;;;;;;;;;;;;;19.65;60.26;99755.22;4380159;32;20017;-89
2022/06/13 00:44:27;;;;;;;;;;;;;;;19.66;60.26;99756.91;4380111;32;19974;-89
2022/06/13 00:46:53;;;;;;;;;;;;;;;19.66;60.27;99752.47;4383184;32;20002;-89
2022/06/13 00:49:27;;;;;;;;;;;;;;;19.60;60.26;99753.72;4367511;32;19986;-90
2022/06/13 00:51:54;;;;;;;;;;;;;;;19.81;60.27;99751.38;4394374;32;19983;-91
2022/06/13 00:54:20;;;;;;;;;;;;;;;19.70;60.27;99748.66;4366277;32;20395;-92
2022/06/13 00:56:45;;;;;;;;;;;;;;;19.48;60.25;99746.62;4368063;32;20041;-92
2022/06/13 00:59:14;;;;;;;;;;;;;;;19.43;60.25;99742.63;4367550;32;20009;-91
2022/06/13 01:01:40;;;;;;;;;;;;;;;19.07;60.23;99748.59;4367632;32;19978;-92
2022/06/13 01:04:05;;;;;;;;;;;;;;;19.13;60.23;99740.25;4380074;32;20028;-90
2022/06/13 01:06:32;;;;;;;;;;;;;;;19.29;60.24;99736.47;4392361;32;20041;-90
2022/06/13 01:08:57;;;;;;;;;;;;;;;19.00;60.22;99737.59;4379995;32;20017;-90
2022/06/13 01:11:22;;;;;;;;;;;;;;;19.04;60.23;99728.53;4380036;32;19986;-90
2022/06/13 01:13:54;;;;;;;;;;;;;;;19.10;60.23;99733.38;4380056;32;19979;-90
2022/06/13 01:16:22;;;;;;;;;;;;;;;18.99;60.22;99731.47;4392441;32;20023;-90
2022/06/13 01:18:50;;;;;;;;;;;;;;;19.01;60.23;99731.38;4392348;32;20025;-90
2022/06/13 01:21:15;;;;;;;;;;;;;;;19.05;60.23;99726.75;4393713;32;20057;-90
2022/06/13 01:24:00;;;;;;;;;;;;;;;18.96;60.22;99726.41;4393482;32;20252;-89
2022/06/13 01:26:31;;;;;;;;;;;;;;;19.08;60.24;99723.88;4392636;32;20327;-90
2022/06/13 01:29:17;;;;;;;;;;;;;;;19.02;60.23;99720.72;4393589;32;20001;-90
2022/06/13 01:31:58;;;;;;;;;;;;;;;18.90;60.22;99723.31;4379885;32;19997;-90
2022/06/13 01:34:26;;;;;;;;;;;;;;;18.91;60.22;99723.22;4392247;32;20383;-89
2022/06/13 01:37:17;;;;;;;;;;;;;;;18.90;60.22;99715.41;4392169;32;20066;-90
2022/06/13 01:40:01;;;;;;;;;;;;;;;18.82;60.21;99718.56;4367145;32;20096;-91
2022/06/13 01:42:38;;;;;;;;;;;;;;;18.94;60.22;99712.50;4392239;32;20032;-91
2022/06/13 01:45:03;;;;;;;;;;;;;;;19.10;60.23;99716.72;4393504;32;20025;-91
2022/06/13 01:47:32;;;;;;;;;;;;;;;19.14;60.23;99712.91;4393503;32;19993;-91
2022/06/13 01:50:04;;;;;;;;;;;;;;;18.98;60.23;99715.75;4367126;32;20712;-91
2022/06/13 01:53:02;;;;;;;;;;;;;;;18.69;60.22;99713.28;4392142;32;20049;-91
2022/06/13 01:55:37;;;;;;;;;;;;;;;18.70;60.22;99703.56;4359565;32;20562;-91
2022/06/13 01:58:05;;;;;;;;;;;;;;;18.58;60.20;99710.44;4379813;32;20045;-90
2022/06/13 02:00:30;;;;;;;;;;;;;;;18.59;60.20;99709.50;4366777;32;20472;-90
2022/06/13 02:02:59;;;;;;;;;;;;;;;18.39;60.19;99702.91;4366860;32;19987;-90
2022/06/13 02:05:28;;;;;;;;;;;;;;;18.39;60.21;99704.69;4367027;32;19976;-90
2022/06/13 02:07:56;;;;;;;;;;;;;;;18.62;60.21;99701.44;4381381;32;19994;-91
2022/06/13 02:10:23;;;;;;;;;;;;;;;18.49;60.20;99703.16;4369003;32;20002;-91
2022/06/13 02:12:48;;;;;;;;;;;;;;;18.26;60.19;99701.16;4381393;32;19978;-89
2022/06/13 02:15:15;;;;;;;;;;;;;;;18.24;60.19;99705.69;4368692;32;20053;-90
2022/06/13 02:17:42;;;;;;;;;;;;;;;18.31;60.19;99704.34;4368742;32;20012;-91
2022/06/13 02:20:13;;;;;;;;;;;;;;;18.24;60.19;99705.69;4368631;32;20012;-90
2022/06/13 02:22:43;;;;;;;;;;;;;;;18.06;60.17;99702.44;4368770;32;20039;-91
2022/06/13 02:25:10;;;;;;;;;;;;;;;18.10;60.18;99699.50;4381220;32;19979;-91
2022/06/13 02:27:37;;;;;;;;;;;;;;;18.17;60.18;99702.59;4368530;32;20362;-90
2022/06/13 02:30:04;;;;;;;;;;;;;;;18.23;60.18;99704.84;4368836;32;20041;-90
2022/06/13 02:32:31;;;;;;;;;;;;;;;18.02;60.17;99714.13;4368598;32;19974;-90
2022/06/13 02:35:15;;;;;;;;;;;;;;;18.13;60.18;99703.72;4381443;32;20360;-91
2022/06/13 02:37:46;;;;;;;;;;;;;;;18.30;60.18;99700.03;4393705;32;20009;-91
2022/06/13 02:40:17;;;;;;;;;;;;;;;18.12;60.18;99701.19;4381150;32;19967;-91
2022/06/13 02:42:53;;;;;;;;;;;;;;;18.08;60.18;99703.19;4368899;32;19992;-90
2022/06/13 02:45:18;;;;;;;;;;;;;;;18.05;60.17;99701.59;4368584;32;19974;-90
2022/06/13 02:47:52;;;;;;;;;;;;;;;18.00;60.17;99705.47;4394819;32;19997;-91
2022/06/13 02:50:19;;;;;;;;;;;;;;;18.03;60.17;99692.09;4381087;32;20380;-91
2022/06/13 02:52:45;;;;;;;;;;;;;;;18.18;60.18;99700.78;4368494;32;19982;-91
2022/06/13 02:55:10;;;;;;;;;;;;;;;18.11;60.17;99692.44;4393305;32;20225;-90
2022/06/13 02:57:36;;;;;;;;;;;;;;;18.19;60.18;99684.88;4368289;32;20037;-89
2022/06/13 03:00:16;;;;;;;;;;;;;;;18.19;60.18;99702.47;4394653;32;20347;-89
2022/06/13 03:02:47;;;;;;;;;;;;;;;18.13;60.18;99701.09;4393482;32;19978;-91
2022/06/13 03:05:21;;;;;;;;;;;;;;;18.02;60.17;99698.31;4380943;32;20320;-91
2022/06/13 03:07:57;;;;;;;;;;;;;;;18.39;60.20;99699.41;4381040;32;20046;-91
2022/06/13 03:10:22;;;;;;;;;;;;;;;18.09;60.18;99694.34;4380882;32;20350;-91
2022/06/13 03:12:57;;;;;;;;;;;;;;;18.25;60.18;99694.22;4380973;32;20001;-91
2022/06/13 03:15:30;;;;;;;;;;;;;;;18.21;60.17;99696.16;4381143;32;19978;-91
2022/06/13 03:17:59;;;;;;;;;;;;;;;18.16;60.18;99697.41;4380220;32;19994;-90
2022/06/13 03:20:27;;;;;;;;;;;;;;;17.99;60.17;99696.72;4368641;32;20362;-90
2022/06/13 03:23:13;;;;;;;;;;;;;;;18.17;60.18;99694.69;4394513;32;20377;-89
2022/06/13 03:25:52;;;;;;;;;;;;;;;18.21;60.18;99698.81;4380239;32;19985;-88
2022/06/13 03:28:21;;;;;;;;;;;;;;;18.40;60.19;99694.03;4368351;32;20047;-91
2022/06/13 03:30:51;;;;;;;;;;;;;;;18.41;60.19;99700.16;4380975;32;19999;-91
2022/06/13 03:36:06;;;;;;;;;;;;;;;18.23;60.18;99682.94;4382975;32;20012;-91
2022/06/13 03:38:33;;;;;;;;;;;;;;;18.12;60.18;99688.87;4368260;32;20892;-90
2022/06/13 03:40:58;;;;;;;;;;;;;;;18.32;60.19;99688.44;4368251;32;20721;-92
2022/06/13 03:43:25;;;;;;;;;;;;;;;18.48;60.20;99687.44;4368374;32;20005;-92
2022/06/13 03:45:55;;;;;;;;;;;;;;;18.46;60.20;99674.38;4380824;32;19992;-91
2022/06/13 03:48:21;;;;;;;;;;;;;;;18.56;60.20;99679.88;4368059;32;19991;-91
2022/06/13 03:50:48;;;;;;;;;;;;;;;18.81;60.21;99677.31;4394626;32;19988;-92
2022/06/13 03:53:13;;;;;;;;;;;;;;;18.78;60.22;99681.97;4368410;32;19982;-91
2022/06/13 03:55:39;;;;;;;;;;;;;;;18.72;60.21;99683.22;4394470;32;20220;-91
2022/06/13 03:58:07;;;;;;;;;;;;;;;18.90;60.21;99684.59;4381287;32;20021;-91
2022/06/13 04:00:33;;;;;;;;;;;;;;;18.95;60.22;99682.53;4368429;32;20022;-92
2022/06/13 04:02:59;;;;;;;;;;;;;;;19.17;60.23;99675.78;4381054;32;20240;-91
2022/06/13 04:05:42;;;;;;;;;;;;;;;19.29;60.23;99675.78;4381834;32;20031;-90
2022/06/13 04:08:08;;;;;;;;;;;;;;;19.43;60.24;99680.13;4380787;32;20013;-90
2022/06/13 04:10:35;;;;;;;;;;;;;;;19.48;60.25;99672.72;4394931;32;20014;-90
2022/06/13 04:13:19;;;;;;;;;;;;;;;19.43;60.25;99671.34;4380665;32;19974;-90
2022/06/13 04:15:54;;;;;;;;;;;;;;;19.37;60.24;99669.12;4394596;32;20321;-91
2022/06/13 04:18:22;;;;;;;;;;;;;;;19.42;60.24;99675.78;4380662;32;20016;-89
2022/06/13 04:20:47;;;;;;;;;;;;;;;19.59;60.25;99674.63;4392823;32;20058;-89
2022/06/13 04:23:33;;;;;;;;;;;;;;;19.45;60.25;99672.09;4392799;32;20036;-90
2022/06/13 04:26:11;;;;;;;;;;;;;;;19.69;60.25;99674.84;4367828;32;20037;-89
2022/06/13 04:28:42;;;;;;;;;;;;;;;19.82;60.26;99675.63;4393702;32;20015;-87
2022/06/13 04:31:07;;;;;;;;;;;;;;;20.00;60.26;99682.25;4380468;32;20008;-87
2022/06/13 04:33:36;;;;;;;;;;;;;;;20.08;60.27;99684.31;4367090;32;28760;-87
2022/06/13 04:36:01;;;;;;;;;;;;;;;20.11;60.28;99684.97;4394059;32;20383;-88
2022/06/13 04:38:27;;;;;;;;;;;;;;;20.29;60.29;99688.06;4380080;32;19982;-88
2022/06/13 04:40:56;;;;;;;;;;;;;;;20.15;60.29;99686.44;4367597;32;20002;-88
2022/06/13 04:43:23;;;;;;;;;;;;;;;20.32;60.29;99674.63;4380116;32;19970;-87
2022/06/13 04:45:58;;;;;;;;;;;;;;;20.48;60.30;99677.00;4380403;32;19971;-88
2022/06/13 04:48:23;;;;;;;;;;;;;;;20.70;60.31;99669.16;4380242;32;19994;-89
2022/06/13 04:50:49;;;;;;;;;;;;;;;20.92;60.31;99672.84;4380148;32;20003;-89
2022/06/13 04:53:19;;;;;;;;;;;;;;;20.89;60.32;99667.78;4380117;32;19971;-87
2022/06/13 04:55:48;;;;;;;;;;;;;;;21.04;60.33;99659.50;4379982;32;19990;-87
2022/06/13 04:58:18;;;;;;;;;;;;;;;21.17;60.33;99670.00;4380033;32;19986;-87
2022/06/13 05:00:43;;;;;;;;;;;;;;;21.24;60.33;99673.03;4380160;32;19998;-87
2022/06/13 05:03:12;;;;;;;;;;;;;;;21.45;60.35;99668.72;4379958;32;20311;-86
2022/06/13 05:05:39;;;;;;;;;;;;;;;21.50;60.35;99668.38;4379790;32;19993;-86
2022/06/13 05:08:21;;;;;;;;;;;;;;;21.61;60.35;99663.09;4379865;32;20407;-86
2022/06/13 05:10:47;;;;;;;;;;;;;;;21.64;60.36;99668.97;4379865;32;19995;-85
2022/06/13 05:13:12;;;;;;;;;;;;;;;21.77;60.37;99660.91;4393338;32;19993;-86
2022/06/13 05:15:37;;;;;;;;;;;;;;;21.90;60.37;99658.09;4392789;32;26280;-86
2022/06/13 05:18:13;;;;;;;;;;;;;;;22.14;60.38;99658.81;4379574;32;20028;-86
2022/06/13 05:20:53;;;;;;;;;;;;;;;22.23;60.38;99658.03;4393418;32;20037;-86
2022/06/13 05:23:18;;;;;;;;;;;;;;;22.24;60.38;99662.41;4393259;32;20038;-86
2022/06/13 05:25:44;;;;;;;;;;;;;;;22.39;60.39;99665.59;4393268;32;19970;-86
2022/06/13 05:28:10;;;;;;;;;;;;;;;22.52;60.41;99668.94;4379350;32;20303;-86
2022/06/13 05:30:35;;;;;;;;;;;;;;;22.61;60.41;99670.81;4393208;32;19987;-86
2022/06/13 05:33:00;;;;;;;;;;;;;;;22.86;60.42;99661.69;4391748;32;19982;-86
2022/06/13 05:35:28;;;;;;;;;;;;;;;23.01;60.43;99662.19;4367091;32;19979;-86
2022/06/13 05:37:54;;;;;;;;;;;;;;;23.01;60.43;99664.84;4393317;32;19987;-86
2022/06/13 05:40:20;;;;;;;;;;;;;;;23.24;60.44;99662.91;4393433;32;19979;-86
2022/06/13 05:42:45;;;;;;;;;;;;;;;23.45;60.45;99658.41;4381325;32;20322;-85
2022/06/13 05:45:11;;;;;;;;;;;;;;;23.48;60.45;99655.47;4394980;32;19978;-86
2022/06/13 05:47:37;;;;;;;;;;;;;;;23.65;60.46;99653.16;4381478;32;20001;-85
2022/06/13 05:50:02;;;;;;;;;;;;;;;23.83;60.48;99659.53;4380923;32;21952;-86
2022/06/13 05:52:27;;;;;;;;;;;;;;;24.10;60.48;99654.41;4395134;32;20001;-86
2022/06/13 05:54:52;;;;;;;;;;;;;;;24.13;60.49;99648.84;4394387;32;26830;-86
2022/06/13 05:57:18;;;;;;;;;;;;;;;24.05;60.49;99653.97;4394709;32;21704;-86
2022/06/13 05:59:43;;;;;;;;;;;;;;;24.48;60.50;99647.47;4380454;32;30779;-85
2022/06/13 06:02:09;;;;;;;;;;;;;;;24.62;60.52;99646.22;4381033;32;19989;-86
2022/06/13 06:04:34;;;;;;;;;;;;;;;24.92;60.53;99643.37;4368898;32;19986;-86
2022/06/13 06:06:59;;;;;;;;;;;;;;;24.89;60.53;99648.16;4368868;32;19995;-86
2022/06/13 06:09:25;;;;;;;;;;;;;;;25.21;60.54;99645.16;4380353;32;31228;-86
2022/06/13 06:11:50;;;;;;;;;;;;;;;25.09;60.54;99652.50;4394553;32;25951;-86
2022/06/13 06:14:15;;;;;;;;;;;;;;;25.26;60.55;99645.56;4381109;32;20045;-86
2022/06/13 06:16:40;;;;;;;;;;;;;;;25.56;60.56;99641.81;4393891;32;19982;-86
2022/06/13 06:19:05;;;;;;;;;;;;;;;25.86;60.58;99641.53;4394901;32;20002;-86
2022/06/13 06:21:31;;;;;;;;;;;;;;;25.78;60.58;99644.09;4394286;32;23248;-86
2022/06/13 06:23:56;;;;;;;;;;;;;;;25.90;60.58;99637.56;4394262;32;25875;-86
2022/06/13 06:26:22;;;;;;;;;;;;;;;26.09;60.58;99641.97;4380541;32;28912;-86
2022/06/13 06:28:47;;;;;;;;;;;;;;;26.29;60.60;99638.16;4381302;32;19997;-86
2022/06/13 06:31:13;;;;;;;;;;;;;;;26.49;60.62;99633.50;4393703;32;20025;-86
2022/06/13 06:33:38;;;;;;;;;;;;;;;26.54;60.61;99638.41;4393661;32;19994;-86
2022/06/13 06:36:03;;;;;;;;;;;;;;;26.83;60.63;99640.81;4395009;32;20271;-86
2022/06/13 06:38:28;;;;;;;;;;;;;;;27.23;60.65;99637.63;4381168;32;19997;-86
2022/06/13 06:40:54;;;;;;;;;;;;;;;27.38;60.66;99637.84;4394913;32;20056;-86
2022/06/13 06:43:19;;;;;;;;;;;;;;;27.82;60.67;99634.06;4394872;32;19978;-84
2022/06/13 06:45:44;;;;;;;;;;;;;;;27.94;60.68;99634.59;4380996;32;20030;-84
2022/06/13 06:48:16;;;;;;;;;;;;;;;28.24;60.70;99626.97;4394872;32;20018;-84
2022/06/13 06:50:43;;;;;;;;;;;;;;;28.70;60.73;99625.53;4394943;32;20041;-85
2022/06/13 06:53:10;;;;;;;;;;;;;;;29.09;60.75;99625.66;4381303;32;19971;-84
2022/06/13 06:59:53;;;;;;;;;;;;;;;29.48;60.76;99617.69;4394666;32;20040;-85
2022/06/13 07:01:15;;;;;;;;;;;;;;;29.55;60.76;99620.50;4394542;32;19979;-85
2022/06/13 07:03:40;;;;;;;;;;;;;;;29.57;60.77;99619.31;4380796;32;19988;-85
2022/06/13 07:06:07;;;;;;;;;;;;;;;29.73;60.78;99629.16;4394497;32;20440;-85
2022/06/13 07:08:32;;;;;;;;;;;;;;;29.84;60.78;99627.94;4394581;32;20373;-84
2022/06/13 07:13:44;;;;;;;;;;;;;;;29.95;60.79;99632.91;4383042;32;19990;-85
2022/06/13 07:16:09;;;;;;;;;;;;;;;30.25;60.81;99620.47;4394107;32;20718;-84
2022/06/13 07:18:34;;;;;;;;;;;;;;;30.29;60.81;99629.88;4380414;32;19997;-85
2022/06/13 07:21:00;;;;;;;;;;;;;;;30.28;60.80;99619.28;4393049;32;19997;-85
2022/06/13 07:23:25;;;;;;;;;;;;;;;30.45;60.82;99623.53;4392423;32;28230;-85
2022/06/13 07:25:50;;;;;;;;;;;;;;;30.48;60.82;99612.44;4368013;32;19974;-85
2022/06/13 07:28:16;;;;;;;;;;;;;;;30.73;60.83;99613.91;4394447;32;20285;-85
2022/06/13 07:30:41;;;;;;;;;;;;;;;30.83;60.84;99619.87;4380611;32;19993;-85
2022/06/13 07:33:06;;;;;;;;;;;;;;;30.93;60.85;99616.09;4368181;32;19987;-86
2022/06/13 07:35:32;;;;;;;;;;;;;;;30.88;60.84;99610.44;4394249;32;20012;-85
2022/06/13 07:40:41;;;;;;;;;;;;;;;30.71;60.83;99623.19;4394447;32;20010;-85
2022/06/13 07:43:06;;;;;;;;;;;;;;;30.89;60.84;99612.09;4393650;32;31764;-86
2022/06/13 07:45:33;;;;;;;;;;;;;;;31.10;60.85;99615.75;4380616;32;20288;-85
2022/06/13 07:47:59;;;;;;;;;;;;;;;31.06;60.85;99617.12;4380518;32;19994;-85
2022/06/13 07:50:24;;;;;;;;;;;;;;;31.09;60.85;99619.44;4393838;32;24567;-84
2022/06/13 07:52:50;;;;;;;;;;;;;;;31.07;60.84;99620.66;4394200;32;19974;-84
2022/06/13 07:55:16;;;;;;;;;;;;;;;31.06;60.85;99619.00;4380336;32;20041;-83
2022/06/13 07:57:42;;;;;;;;;;;;;;;31.25;60.86;99620.34;4394211;32;19987;-83
2022/06/13 08:00:07;;;;;;;;;;;;;;;31.24;60.87;99613.28;4394159;32;19998;-83
2022/06/13 08:02:33;;;;;;;;;;;;;;;31.23;60.85;99615.16;4392935;32;19987;-83
2022/06/13 08:04:58;;;;;;;;;;;;;;;31.27;60.86;99611.06;4379815;32;20025;-83
2022/06/13 08:07:23;;;;;;;;;;;;;;;31.45;60.86;99611.50;4393679;32;20358;-83
2022/06/13 08:09:48;;;;;;;;;;;;;;;31.48;60.88;99606.78;4393951;32;20323;-83
2022/06/13 08:12:14;;;;;;;;;;;;;;;31.64;60.88;99604.69;4367005;32;36148;-83
2022/06/13 08:14:45;;;;;;;;;;;;;;;31.69;60.88;99604.13;4380330;32;20329;-82
2022/06/13 08:17:10;;;;;;;;;;;;;;;31.70;60.88;99603.09;4380910;32;20351;-83
2022/06/13 08:19:35;;;;;;;;;;;;;;;31.99;60.90;99603.09;4392666;32;20034;-82
2022/06/13 08:22:01;;;;;;;;;;;;;;;32.02;60.89;99602.69;4392081;32;29567;-82
2022/06/13 08:24:26;;;;;;;;;;;;;;;32.09;60.90;99599.22;4393368;32;28434;-82
2022/06/13 08:26:51;;;;;;;;;;;;;;;32.12;60.91;99598.84;4392792;32;20036;-82
2022/06/13 08:29:16;;;;;;;;;;;;;;;32.47;60.93;99591.78;4393447;32;25455;-81
2022/06/13 08:31:41;;;;;;;;;;;;;;;32.71;60.94;99593.22;4392270;32;31237;-81
2022/06/13 08:34:07;;;;;;;;;;;;;;;32.66;60.93;99600.03;4393509;32;32051;-80
2022/06/13 08:36:32;;;;;;;;;;;;;;;32.59;60.94;99603.66;4394258;32;19990;-80
2022/06/13 08:38:58;;;;;;;;;;;;;;;32.46;60.92;99596.31;4393492;32;27478;-80
2022/06/13 08:41:29;;;;;;;;;;;;;;;32.59;60.94;99601.81;4379702;32;26268;-80
2022/06/13 08:44:09;;;;;;;;;;;;;;;32.61;60.93;99590.84;4380367;32;19990;-80
2022/06/13 08:46:40;;;;;;;;;;;;;;;32.50;60.92;99594.91;4393957;32;19983;-80
2022/06/13 08:49:10;;;;;;;;;;;;;;;32.67;60.94;99599.00;4393823;32;19978;-81
2022/06/13 08:51:41;;;;;;;;;;;;;;;32.63;60.93;99608.47;4380166;32;19975;-81
2022/06/13 08:54:07;;;;;;;;;;;;;;;32.58;60.93;99602.00;4392421;32;20025;-81
2022/06/13 08:56:34;;;;;;;;;;;;;;;32.80;60.94;99594.75;4380196;32;20268;-82
2022/06/13 08:59:22;;;;;;;;;;;;;;;32.78;60.94;99596.78;4393713;32;19979;-81
2022/06/13 09:01:47;;;;;;;;;;;;;;;32.48;60.92;99599.66;4392452;32;19986;-81
2022/06/13 09:04:14;;;;;;;;;;;;;;;32.44;60.93;99590.31;4379642;32;20315;-82
2022/06/13 09:06:40;;;;;;;;;;;;;;;32.59;60.94;99588.34;4367477;32;20048;-82
2022/06/13 09:09:05;;;;;;;;;;;;;;;32.65;60.93;99581.31;4379902;32;19978;-82
2022/06/13 09:11:37;;;;;;;;;;;;;;;32.80;60.94;99586.66;4392323;32;20018;-81
2022/06/13 09:14:13;;;;;;;;;;;;;;;32.97;60.95;99580.78;4392311;32;19994;-82
2022/06/13 09:16:39;;;;;;;;;;;;;;;33.04;60.95;99575.41;4378658;32;20001;-82
2022/06/13 09:19:11;;;;;;;;;;;;;;;33.20;60.96;99571.56;4393542;32;19978;-82
2022/06/13 09:21:46;;;;;;;;;;;;;;;33.31;60.96;99575.56;4367341;32;20007;-82
2022/06/13 09:24:27;;;;;;;;;;;;;;;33.39;60.98;99564.66;4393529;32;20036;-82
2022/06/13 09:26:53;;;;;;;;;;;;;;;33.36;60.97;99560.50;4379929;32;19987;-82
2022/06/13 09:29:31;;;;;;;;;;;;;;;33.29;60.96;99554.19;4393518;32;20323;-82
2022/06/13 09:32:01;;;;;;;;;;;;;;;33.56;60.99;99552.44;4393409;32;19981;-82
2022/06/13 09:34:34;;;;;;;;;;;;;;;33.76;60.98;99550.66;4379544;32;20005;-82
2022/06/13 09:37:08;;;;;;;;;;;;;;;33.61;60.98;99552.69;4393326;32;20018;-82
2022/06/13 09:39:34;;;;;;;;;;;;;;;33.44;60.97;99548.69;4393218;32;19959;-82
2022/06/13 09:42:05;;;;;;;;;;;;;;;33.46;60.97;99546.63;4378875;32;24109;-82
2022/06/13 09:44:40;;;;;;;;;;;;;;;33.57;60.98;99537.91;4393206;32;19995;-82
2022/06/13 09:47:10;;;;;;;;;;;;;;;33.61;60.98;99544.59;4393248;32;19991;-82
2022/06/13 09:49:38;;;;;;;;;;;;;;;33.62;60.99;99532.78;4379315;32;20002;-83
2022/06/13 09:52:12;;;;;;;;;;;;;;;33.68;60.99;99531.94;4379457;32;19978;-83
2022/06/13 09:54:43;;;;;;;;;;;;;;;33.89;61.00;99527.47;4366587;32;19999;-82
2022/06/13 09:57:11;;;;;;;;;;;;;;;34.08;61.01;99529.37;4379559;32;19991;-82
2022/06/13 09:59:41;;;;;;;;;;;;;;;34.12;61.01;99517.09;4379420;32;19993;-82
2022/06/13 10:02:44;;;;;;;;;;;;;;;34.31;61.02;99518.13;4366953;32;19993;-82
2022/06/13 10:05:09;;;;;;;;;;;;;;;34.61;61.04;99514.00;4392856;32;20295;-83
2022/06/13 10:07:38;;;;;;;;;;;;;;;34.73;61.04;99503.34;4391635;32;20004;-82
2022/06/13 10:10:04;;;;;;;;;;;;;;;34.67;61.03;99507.75;4379059;32;19979;-82
2022/06/13 10:12:29;;;;;;;;;;;;;;;34.43;61.03;99517.34;4391445;32;20024;-82
2022/06/13 10:15:13;;;;;;;;;;;;;;;34.11;61.00;99510.03;4392707;32;20033;-82
2022/06/13 10:17:41;;;;;;;;;;;;;;;34.52;61.02;99503.59;4392940;32;20041;-83
2022/06/13 10:20:06;;;;;;;;;;;;;;;34.28;61.02;99505.87;4392633;32;20046;-83
2022/06/13 10:22:35;;;;;;;;;;;;;;;34.14;61.01;99498.81;4392677;32;19979;-83
2022/06/13 10:25:16;;;;;;;;;;;;;;;33.85;60.99;99510.84;4392528;32;21445;-83
2022/06/13 10:27:45;;;;;;;;;;;;;;;33.90;61.00;99507.53;4367632;32;20058;-83
2022/06/13 10:30:18;;;;;;;;;;;;;;;34.15;61.01;99486.97;4381129;32;19997;-83
2022/06/13 10:32:43;;;;;;;;;;;;;;;34.26;61.02;99478.22;4381069;32;19966;-83
2022/06/13 10:35:12;;;;;;;;;;;;;;;34.48;61.02;99485.09;4394747;32;19994;-83
2022/06/13 10:37:40;;;;;;;;;;;;;;;34.73;61.03;99473.59;4394668;32;20009;-83
2022/06/13 10:40:05;;;;;;;;;;;;;;;34.80;61.04;99481.72;4394837;32;19993;-83
2022/06/13 10:42:31;;;;;;;;;;;;;;;34.79;61.04;99472.78;4380787;32;19962;-83
2022/06/13 10:44:56;;;;;;;;;;;;;;;34.49;61.02;99477.81;4380866;32;20009;-83
2022/06/13 10:47:40;;;;;;;;;;;;;;;34.36;61.03;99473.28;4381048;32;19997;-83
2022/06/13 10:50:07;;;;;;;;;;;;;;;34.41;61.02;99473.47;4394691;32;19994;-83
2022/06/13 10:52:33;;;;;;;;;;;;;;;34.67;61.03;99469.88;4380955;32;20339;-83
2022/06/13 10:55:03;;;;;;;;;;;;;;;34.65;61.03;99458.47;4380755;32;19999;-83
2022/06/13 10:57:30;;;;;;;;;;;;;;;34.85;61.05;99465.72;4381002;32;20339;-83
2022/06/13 11:00:14;;;;;;;;;;;;;;;34.86;61.05;99451.97;4380783;32;19987;-83
2022/06/13 11:02:39;;;;;;;;;;;;;;;34.79;61.04;99443.03;4394877;32;19970;-83
2022/06/13 11:05:06;;;;;;;;;;;;;;;34.97;61.05;99445.88;4380980;32;20248;-83
2022/06/13 11:07:32;;;;;;;;;;;;;;;35.18;61.06;99438.53;4381042;32;20042;-83
2022/06/13 11:09:57;;;;;;;;;;;;;;;35.21;61.06;99440.78;4381134;32;19993;-83
2022/06/13 11:12:24;;;;;;;;;;;;;;;35.35;61.07;99427.00;4381234;32;19963;-83
2022/06/13 11:23:11;;;;;;;;;;;;;;;33.79;61.00;99444.09;4382831;32;20419;-83
2022/06/13 11:25:36;;;;;;;;;;;;;;;33.37;60.97;99448.00;4393720;32;29324;-83
2022/06/13 11:28:06;;;;;;;;;;;;;;;33.30;60.97;99439.00;4367641;32;26081;-83
2022/06/13 11:30:40;;;;;;;;;;;;;;;32.83;60.95;99444.22;4380633;32;20346;-83
2022/06/13 11:33:07;;;;;;;;;;;;;;;32.35;60.93;99443.28;4394474;32;19971;-83
2022/06/13 11:35:38;;;;;;;;;;;;;;;32.14;60.92;99443.28;4380505;32;20494;-83
2022/06/13 11:38:14;;;;;;;;;;;;;;;32.11;60.92;99441.81;4367338;32;19982;-83
2022/06/13 11:40:39;;;;;;;;;;;;;;;32.42;60.92;99446.03;4394335;32;19982;-82
2022/06/13 11:43:04;;;;;;;;;;;;;;;32.09;60.92;99432.28;4367535;32;26396;-84
2022/06/13 11:45:30;;;;;;;;;;;;;;;32.01;60.91;99435.97;4367922;32;20319;-83
2022/06/13 11:47:55;;;;;;;;;;;;;;;31.92;60.90;99437.09;4394211;32;19974;-83
2022/06/13 11:50:24;;;;;;;;;;;;;;;32.15;60.92;99426.09;4393975;32;20279;-83
2022/06/13 11:55:43;;;;;;;;;;;;;;;32.35;60.93;99419.88;4394284;32;20032;-83
2022/06/13 11:58:13;;;;;;;;;;;;;;;32.45;60.93;99419.53;4368479;32;20502;-83
2022/06/13 12:00:51;;;;;;;;;;;;;;;32.27;60.93;99414.66;4380498;32;19974;-83
2022/06/13 12:03:24;;;;;;;;;;;;;;;32.38;60.93;99417.81;4380493;32;20303;-83
2022/06/13 12:05:50;;;;;;;;;;;;;;;32.25;60.92;99410.47;4367881;32;19986;-83
2022/06/13 12:08:16;;;;;;;;;;;;;;;32.15;60.92;99405.41;4367870;32;20419;-83
2022/06/13 12:10:52;;;;;;;;;;;;;;;32.47;60.93;99406.69;4394164;32;20029;-83
2022/06/13 12:13:20;;;;;;;;;;;;;;;32.59;60.94;99402.38;4380390;32;19970;-83
2022/06/13 12:16:05;;;;;;;;;;;;;;;32.66;60.93;99395.19;4392841;32;20282;-83
2022/06/13 12:18:30;;;;;;;;;;;;;;;32.69;60.94;99391.25;4393825;32;19982;-83
2022/06/13 12:20:59;;;;;;;;;;;;;;;32.71;60.94;99391.06;4394368;32;19992;-83
2022/06/13 12:23:27;;;;;;;;;;;;;;;32.49;60.93;99385.75;4368126;32;19982;-83
2022/06/13 12:25:58;;;;;;;;;;;;;;;32.45;60.93;99397.97;4380613;32;20033;-83
2022/06/13 12:28:25;;;;;;;;;;;;;;;32.32;60.93;99395.19;4380583;32;19990;-83
2022/06/13 12:30:52;;;;;;;;;;;;;;;32.29;60.92;99387.50;4380558;32;20341;-83
2022/06/13 12:33:24;;;;;;;;;;;;;;;32.34;60.92;99393.13;4367871;32;19982;-83
2022/06/13 12:35:59;;;;;;;;;;;;;;;31.94;60.91;99392.84;4394058;32;20030;-83
2022/06/13 12:38:36;;;;;;;;;;;;;;;31.92;60.90;99385.97;4392651;32;20061;-83
2022/06/13 12:41:17;;;;;;;;;;;;;;;32.33;60.92;99378.00;4393930;32;19975;-84
2022/06/13 12:43:45;;;;;;;;;;;;;;;32.84;60.95;99374.97;4380118;32;20287;-83
2022/06/13 12:46:29;;;;;;;;;;;;;;;33.22;60.97;99367.19;4393858;32;19990;-83
2022/06/13 12:48:58;;;;;;;;;;;;;;;33.17;60.97;99370.50;4393891;32;20339;-83
2022/06/13 12:51:34;;;;;;;;;;;;;;;33.37;60.97;99353.56;4379956;32;20029;-84
2022/06/13 12:54:06;;;;;;;;;;;;;;;33.31;60.96;99360.56;4379977;32;19978;-83
2022/06/13 12:56:36;;;;;;;;;;;;;;;32.78;60.95;99371.19;4393984;32;20101;-83
2022/06/13 12:59:19;;;;;;;;;;;;;;;32.33;60.92;99369.91;4380024;32;20031;-83
2022/06/13 13:01:57;;;;;;;;;;;;;;;32.24;60.91;99373.78;4392534;32;19994;-83
2022/06/13 13:04:30;;;;;;;;;;;;;;;31.99;60.90;99378.78;4379982;32;19970;-83
2022/06/13 13:07:28;;;;;;;;;;;;;;;31.97;60.91;99375.47;4380016;32;20333;-83
2022/06/13 13:09:56;;;;;;;;;;;;;;;31.83;60.90;99377.22;4359977;32;20017;-83
2022/06/13 13:12:42;;;;;;;;;;;;;;;31.79;60.91;99384.00;4393920;32;20380;-83
2022/06/13 13:15:23;;;;;;;;;;;;;;;31.33;60.88;99387.06;4380026;32;20390;-83
2022/06/13 13:18:14;;;;;;;;;;;;;;;31.28;60.87;99394.06;4392171;32;20045;-83
2022/06/13 13:20:44;;;;;;;;;;;;;;;31.29;60.87;99398.41;4369821;32;20012;-83